Time;durP1;ratioP1;P1;durP2;ratioP2;P2;SDS_P1;SDS_P2;PMS_P1;PMS_P2;Temp;Humidity;BMP_temperature;BMP_pressure;BME280_temperature;BME280_humidity;BME280_pressure;Samples;Min_cycle;Max_cycle;Signal;HPM_P1;HPM_P2
2021/10/02 00:02:19;;;;;;;24.60;20.02;;;15.80;68.60;;;;;;5114972;27;20040;-73
2021/10/02 00:35:28;;;;;;;29.52;22.35;;;15.80;68.00;;;;;;5112867;28;19912;-73
2021/10/02 00:46:09;;;;;;;26.65;22.20;;;15.70;68.10;;;;;;5114564;28;20038;-73
2021/10/02 00:48:39;;;;;;;28.63;22.38;;;15.70;68.20;;;;;;5113245;28;20024;-76
2021/10/02 00:51:05;;;;;;;28.25;22.85;;;15.70;68.20;;;;;;5112759;28;20051;-75
2021/10/02 00:53:31;;;;;;;26.65;21.92;;;15.70;68.20;;;;;;5112804;28;20028;-75
2021/10/02 00:55:57;;;;;;;29.83;23.02;;;15.70;68.10;;;;;;5113874;27;20038;-74
2021/10/02 00:58:22;;;;;;;31.60;23.77;;;15.70;68.10;;;;;;5113901;28;20024;-75
2021/10/02 01:00:52;;;;;;;32.92;23.48;;;15.70;68.00;;;;;;5112362;28;20075;-75
2021/10/02 01:03:52;;;;;;;28.98;23.08;;;15.70;68.00;;;;;;5112140;28;20031;-75
2021/10/02 01:06:46;;;;;;;29.58;23.17;;;15.80;68.00;;;;;;5113296;28;20035;-75
2021/10/02 01:09:40;;;;;;;25.48;22.38;;;15.70;67.90;;;;;;5113452;28;20024;-74
2021/10/02 01:12:31;;;;;;;26.65;23.38;;;15.70;67.80;;;;;;5112428;28;20457;-74
2021/10/02 01:15:21;;;;;;;28.65;23.23;;;15.80;67.70;;;;;;5113366;28;20023;-74
2021/10/02 01:18:01;;;;;;;32.92;23.73;;;15.80;67.60;;;;;;5114108;28;20081;-75
2021/10/02 01:21:03;;;;;;;29.98;23.70;;;15.70;67.70;;;;;;5114274;28;20122;-75
2021/10/02 01:23:54;;;;;;;27.25;21.90;;;15.70;67.90;;;;;;5111463;28;20049;-74
2021/10/02 01:26:43;;;;;;;28.20;22.58;;;15.70;68.20;;;;;;5113470;28;20039;-75
2021/10/02 01:29:10;;;;;;;27.75;22.40;;;15.60;68.60;;;;;;5111874;28;20028;-74
2021/10/02 01:31:45;;;;;;;29.85;22.65;;;15.60;68.70;;;;;;5112485;28;20068;-75
2021/10/02 01:48:00;;;;;;;26.50;20.65;;;15.50;69.60;;;;;;5111967;28;20061;-74
2021/10/02 01:50:31;;;;;;;28.83;22.20;;;15.50;69.80;;;;;;5111869;28;20024;-74
2021/10/02 01:53:00;;;;;;;27.25;21.88;;;15.50;70.00;;;;;;5111648;28;20033;-74
2021/10/02 01:55:29;;;;;;;26.92;22.67;;;15.50;70.20;;;;;;5112112;28;20115;-75
2021/10/02 01:58:04;;;;;;;27.00;22.95;;;15.50;70.30;;;;;;5113195;28;20453;-76
2021/10/02 02:00:31;;;;;;;30.17;23.05;;;15.40;70.50;;;;;;5111900;28;20026;-75
2021/10/02 02:03:04;;;;;;;27.98;22.50;;;15.40;70.50;;;;;;5111396;28;20030;-73
2021/10/02 02:05:31;;;;;;;28.65;21.70;;;15.50;70.50;;;;;;5112507;28;20032;-76
2021/10/02 02:08:06;;;;;;;27.20;22.23;;;15.40;70.40;;;;;;5094316;28;20035;-74
2021/10/02 02:10:33;;;;;;;30.42;24.48;;;15.40;70.50;;;;;;5112212;28;20023;-75
2021/10/02 02:13:01;;;;;;;29.60;24.15;;;15.40;70.40;;;;;;5112115;28;20027;-74
2021/10/02 02:15:29;;;;;;;28.55;23.27;;;15.40;70.40;;;;;;5110896;28;20121;-73
2021/10/02 02:18:08;;;;;;;27.65;22.48;;;15.50;70.50;;;;;;5112948;28;20054;-74
2021/10/02 02:20:43;;;;;;;28.10;22.95;;;15.40;70.60;;;;;;5111883;28;20023;-74
2021/10/02 02:23:10;;;;;;;28.05;23.33;;;15.40;70.50;;;;;;5110961;28;20020;-74
2021/10/02 02:25:36;;;;;;;28.15;24.20;;;15.40;70.50;;;;;;5111981;28;20351;-75
2021/10/02 02:28:06;;;;;;;30.48;24.20;;;15.40;70.60;;;;;;5111302;28;20114;-75
2021/10/02 02:30:32;;;;;;;30.88;23.45;;;15.40;70.80;;;;;;5113277;28;20087;-75
2021/10/02 02:33:00;;;;;;;29.70;23.83;;;15.40;70.60;;;;;;5110652;28;20065;-75
2021/10/02 02:35:26;;;;;;;29.45;22.98;;;15.40;70.70;;;;;;5111089;28;20027;-75
2021/10/02 02:38:10;;;;;;;29.02;23.23;;;15.30;70.70;;;;;;5112789;28;20026;-75
2021/10/02 02:40:36;;;;;;;29.52;23.80;;;15.40;70.70;;;;;;5112697;28;20472;-75
2021/10/02 02:43:02;;;;;;;31.70;25.55;;;15.30;70.70;;;;;;5110692;28;20048;-74
2021/10/02 02:45:30;;;;;;;30.23;23.30;;;15.30;70.80;;;;;;5111420;28;20030;-75
2021/10/02 02:47:58;;;;;;;29.35;24.38;;;15.30;70.90;;;;;;5111497;28;20028;-75
2021/10/02 02:50:36;;;;;;;31.13;24.20;;;15.30;70.90;;;;;;5111118;28;20035;-74
2021/10/02 02:53:07;;;;;;;31.50;24.75;;;15.30;71.00;;;;;;5112464;28;20043;-73
2021/10/02 02:55:41;;;;;;;32.78;24.17;;;15.30;70.90;;;;;;5111143;28;20022;-74
2021/10/02 02:58:07;;;;;;;29.70;24.17;;;15.20;70.90;;;;;;5112011;28;20050;-73
2021/10/02 03:00:42;;;;;;;31.83;23.55;;;15.20;70.90;;;;;;5111371;28;20077;-75
2021/10/02 03:03:11;;;;;;;27.23;23.23;;;15.20;70.90;;;;;;5111631;28;20062;-75
2021/10/02 03:05:41;;;;;;;34.17;24.80;;;15.20;70.90;;;;;;5112476;28;20023;-74
2021/10/02 03:08:16;;;;;;;30.02;24.48;;;15.20;70.90;;;;;;5112292;28;20072;-76
2021/10/02 03:11:03;;;;;;;33.53;25.88;;;15.20;70.90;;;;;;5111220;28;20024;-73
2021/10/02 03:13:31;;;;;;;30.50;24.83;;;15.20;70.90;;;;;;5111028;28;20054;-73
2021/10/02 03:15:58;;;;;;;31.67;25.10;;;15.20;70.80;;;;;;5111937;28;20027;-73
2021/10/02 03:18:26;;;;;;;33.97;25.23;;;15.20;70.80;;;;;;5111393;28;20027;-73
2021/10/02 03:20:57;;;;;;;38.08;24.67;;;15.20;70.90;;;;;;5112303;28;20024;-73
2021/10/02 03:23:26;;;;;;;31.45;25.67;;;15.20;70.90;;;;;;5111375;28;20118;-73
2021/10/02 03:25:52;;;;;;;28.80;24.88;;;15.20;70.80;;;;;;5112212;28;20449;-74
2021/10/02 03:28:19;;;;;;;30.95;24.58;;;15.20;70.80;;;;;;5111283;28;20028;-74
2021/10/02 03:30:45;;;;;;;30.15;23.85;;;15.20;70.80;;;;;;5111059;28;20031;-73
2021/10/02 03:33:14;;;;;;;30.63;24.40;;;15.20;70.80;;;;;;5111257;28;20027;-73
2021/10/02 03:35:43;;;;;;;31.02;23.92;;;15.20;70.80;;;;;;5109955;28;20046;-73
2021/10/02 03:38:08;;;;;;;33.70;25.60;;;15.20;70.90;;;;;;5111654;28;20497;-73
2021/10/02 03:40:34;;;;;;;31.95;25.33;;;15.20;70.90;;;;;;5110172;28;20115;-73
2021/10/02 03:43:00;;;;;;;32.35;25.38;;;15.20;70.90;;;;;;5111726;28;20047;-74
2021/10/02 03:45:28;;;;;;;33.78;26.15;;;15.20;71.00;;;;;;5093947;28;20031;-74
2021/10/02 03:47:54;;;;;;;31.15;25.75;;;15.10;70.90;;;;;;5115715;27;20030;-74
2021/10/02 03:50:21;;;;;;;32.33;26.02;;;15.10;71.10;;;;;;5115022;28;20020;-73
2021/10/02 03:52:46;;;;;;;31.83;24.33;;;15.10;71.20;;;;;;5115771;28;20036;-73
2021/10/02 03:55:15;;;;;;;29.77;24.48;;;15.10;71.20;;;;;;5114603;28;20020;-72
2021/10/02 03:57:41;;;;;;;30.20;23.95;;;15.10;71.30;;;;;;5097013;28;20038;-73
2021/10/02 04:00:09;;;;;;;33.05;25.48;;;15.10;71.20;;;;;;5114791;28;20051;-73
2021/10/02 04:02:36;;;;;;;35.30;26.20;;;15.00;71.30;;;;;;5114724;28;20024;-73
2021/10/02 04:05:02;;;;;;;31.13;24.95;;;15.00;71.30;;;;;;5115362;28;20028;-73
2021/10/02 04:07:28;;;;;;;33.55;24.63;;;15.10;71.40;;;;;;5114903;28;20027;-73
2021/10/02 04:09:54;;;;;;;32.22;23.73;;;15.00;71.40;;;;;;5115405;28;20034;-73
2021/10/02 04:12:20;;;;;;;30.90;24.45;;;15.00;71.60;;;;;;5114121;27;20058;-74
2021/10/02 04:14:47;;;;;;;33.67;25.65;;;14.90;71.70;;;;;;5115164;28;20102;-73
2021/10/02 04:17:13;;;;;;;31.98;24.25;;;14.90;71.70;;;;;;5114237;28;20408;-73
2021/10/02 04:19:39;;;;;;;31.00;24.00;;;14.90;71.80;;;;;;5113751;28;20015;-75
2021/10/02 04:22:05;;;;;;;31.42;24.65;;;14.90;71.90;;;;;;5114375;28;20032;-74
2021/10/02 04:24:31;;;;;;;33.03;25.70;;;14.90;72.00;;;;;;5113829;28;20155;-74
2021/10/02 04:26:58;;;;;;;32.83;24.95;;;14.90;72.00;;;;;;5115098;28;20070;-75
2021/10/02 04:29:28;;;;;;;32.00;25.00;;;14.90;72.10;;;;;;5113000;28;20028;-75
2021/10/02 04:31:54;;;;;;;28.83;23.85;;;14.90;72.10;;;;;;5114388;28;20062;-75
2021/10/02 04:34:20;;;;;;;30.20;25.23;;;14.90;72.10;;;;;;5114403;28;20042;-74
2021/10/02 04:36:46;;;;;;;32.35;26.20;;;14.90;72.70;;;;;;5114366;28;20032;-73
2021/10/02 04:39:11;;;;;;;29.85;24.60;;;14.90;72.20;;;;;;5114208;28;20377;-73
2021/10/02 04:41:37;;;;;;;32.15;24.90;;;14.90;72.30;;;;;;5114287;28;20083;-75
2021/10/02 04:44:03;;;;;;;31.52;24.67;;;14.80;72.40;;;;;;5114643;28;20031;-73
2021/10/02 04:46:29;;;;;;;32.83;24.40;;;14.80;72.50;;;;;;5114530;28;20055;-74
2021/10/02 04:48:55;;;;;;;30.92;23.45;;;14.80;72.70;;;;;;5114747;28;20047;-75
2021/10/02 04:51:20;;;;;;;32.13;24.40;;;14.80;72.80;;;;;;5113384;28;20457;-73
2021/10/02 04:53:46;;;;;;;35.70;26.13;;;14.80;72.80;;;;;;5114612;28;20102;-74
2021/10/02 04:56:17;;;;;;;35.38;26.35;;;14.80;72.90;;;;;;5113880;28;20450;-73
2021/10/02 04:58:43;;;;;;;33.22;25.70;;;14.80;72.80;;;;;;5114172;28;20024;-75
2021/10/02 05:01:10;;;;;;;36.92;24.65;;;14.80;72.90;;;;;;5113686;28;20027;-73
2021/10/02 05:03:37;;;;;;;30.30;25.00;;;14.80;72.90;;;;;;5114017;28;20369;-74
2021/10/02 05:06:04;;;;;;;34.55;26.80;;;14.80;72.90;;;;;;5113767;28;20465;-73
2021/10/02 05:08:31;;;;;;;32.70;25.67;;;14.80;72.90;;;;;;5114203;28;20035;-73
2021/10/02 05:10:58;;;;;;;35.55;26.70;;;14.90;73.00;;;;;;5113541;28;20023;-73
2021/10/02 05:13:24;;;;;;;34.83;26.63;;;14.90;73.00;;;;;;5113494;28;20031;-75
2021/10/02 05:15:50;;;;;;;35.17;24.98;;;14.90;72.90;;;;;;5113996;28;20110;-75
2021/10/02 05:18:16;;;;;;;34.67;23.98;;;14.90;73.00;;;;;;5113238;28;20399;-74
2021/10/02 05:20:42;;;;;;;34.38;26.52;;;14.90;73.00;;;;;;5113531;28;20473;-73
2021/10/02 05:23:07;;;;;;;30.92;25.23;;;14.90;73.00;;;;;;5112736;28;20027;-73
2021/10/02 05:25:33;;;;;;;33.08;25.98;;;15.00;72.90;;;;;;5114063;28;20024;-74
2021/10/02 05:27:59;;;;;;;30.02;25.08;;;15.00;72.80;;;;;;5113485;28;20104;-74
2021/10/02 05:30:25;;;;;;;34.00;25.50;;;15.00;72.90;;;;;;5112783;28;20028;-75
2021/10/02 05:32:50;;;;;;;35.42;26.42;;;15.00;73.00;;;;;;5112353;28;20024;-75
2021/10/02 05:35:16;;;;;;;36.45;27.17;;;15.00;73.30;;;;;;5112671;28;20453;-74
2021/10/02 05:37:42;;;;;;;31.00;25.65;;;15.00;73.30;;;;;;5113626;28;20031;-74
2021/10/02 05:40:08;;;;;;;33.58;25.83;;;15.00;73.40;;;;;;5113010;28;20097;-74
2021/10/02 05:42:34;;;;;;;33.65;25.80;;;15.00;73.40;;;;;;5111388;28;20090;-74
2021/10/02 05:45:00;;;;;;;31.85;25.80;;;15.00;73.50;;;;;;5113256;28;20052;-73
2021/10/02 05:47:25;;;;;;;33.30;27.42;;;15.10;73.50;;;;;;5111570;28;20024;-75
2021/10/02 05:49:51;;;;;;;34.42;26.40;;;15.10;73.30;;;;;;5111935;28;20081;-74
2021/10/02 05:52:17;;;;;;;35.88;26.33;;;15.10;73.30;;;;;;5112509;28;20098;-74
2021/10/02 05:54:43;;;;;;;33.00;26.50;;;15.10;73.50;;;;;;5112863;28;20019;-73
2021/10/02 05:57:09;;;;;;;35.80;25.55;;;15.10;73.50;;;;;;5112260;28;20027;-74
2021/10/02 05:59:35;;;;;;;32.20;25.90;;;15.20;73.50;;;;;;5112901;28;20493;-75
2021/10/02 06:02:01;;;;;;;31.52;25.48;;;15.20;73.50;;;;;;5112729;28;20031;-75
2021/10/02 06:04:26;;;;;;;33.72;27.02;;;15.20;73.40;;;;;;5112127;28;20024;-73
2021/10/02 06:06:52;;;;;;;35.95;26.60;;;15.30;73.40;;;;;;5111396;28;20407;-73
2021/10/02 06:09:19;;;;;;;33.13;27.25;;;15.20;73.50;;;;;;5107344;28;20019;-72
2021/10/02 06:11:44;;;;;;;32.20;25.60;;;15.20;73.60;;;;;;5110775;27;20465;-72
2021/10/02 06:14:10;;;;;;;35.25;26.65;;;15.20;73.70;;;;;;5109665;28;20030;-74
2021/10/02 06:16:38;;;;;;;37.55;28.20;;;15.30;73.90;;;;;;5110693;28;20118;-73
2021/10/02 06:19:05;;;;;;;36.22;27.33;;;15.40;73.70;;;;;;5109578;27;20500;-73
2021/10/02 06:21:31;;;;;;;35.47;26.88;;;15.40;73.60;;;;;;5110899;28;20028;-73
2021/10/02 06:24:00;;;;;;;33.75;27.80;;;15.50;73.40;;;;;;5110311;27;20042;-72
2021/10/02 06:26:30;;;;;;;35.95;27.23;;;15.50;73.40;;;;;;5110712;28;20389;-73
2021/10/02 06:28:56;;;;;;;33.35;26.67;;;15.50;73.40;;;;;;5109750;27;20031;-73
2021/10/02 06:31:27;;;;;;;34.13;26.65;;;15.60;73.30;;;;;;5108550;28;20061;-73
2021/10/02 06:33:52;;;;;;;33.67;26.65;;;15.60;73.20;;;;;;5110148;27;20388;-74
2021/10/02 06:36:19;;;;;;;33.75;26.58;;;15.70;73.00;;;;;;5110154;28;20035;-73
2021/10/02 06:38:45;;;;;;;39.85;27.33;;;15.70;73.00;;;;;;5110425;27;20375;-74
2021/10/02 06:41:11;;;;;;;33.22;26.20;;;15.80;73.00;;;;;;5108989;28;20019;-74
2021/10/02 06:43:37;;;;;;;37.35;26.67;;;15.80;73.00;;;;;;5109745;27;20043;-74
2021/10/02 06:46:04;;;;;;;33.65;26.92;;;15.80;73.10;;;;;;5109407;28;20031;-72
2021/10/02 06:48:29;;;;;;;36.35;30.42;;;15.80;73.10;;;;;;5109287;27;20434;-75
2021/10/02 06:50:55;;;;;;;38.60;29.75;;;15.90;73.20;;;;;;5109218;28;20035;-73
2021/10/02 06:53:21;;;;;;;35.22;27.30;;;16.60;73.70;;;;;;5108214;28;20039;-72
2021/10/02 06:55:47;;;;;;;29.80;25.70;;;19.20;68.50;;;;;;5109375;28;20050;-73
2021/10/02 06:58:13;;;;;;;28.77;23.20;;;21.70;61.70;;;;;;5108641;27;20030;-73
2021/10/02 07:00:39;;;;;;;24.80;21.40;;;23.80;56.10;;;;;;5108980;28;20040;-73
2021/10/02 07:03:09;;;;;;;26.48;21.65;;;25.50;51.30;;;;;;5109767;27;20366;-72
2021/10/02 07:05:35;;;;;;;23.92;21.42;;;27.00;47.10;;;;;;5109941;28;20058;-74
2021/10/02 07:08:01;;;;;;;24.10;20.05;;;27.90;44.40;;;;;;5109998;27;20389;-73
2021/10/02 07:10:27;;;;;;;20.23;18.08;;;28.70;42.30;;;;;;5110556;28;20020;-71
2021/10/02 07:12:54;;;;;;;21.05;18.70;;;29.30;40.80;;;;;;5109123;28;20019;-73
2021/10/02 07:15:20;;;;;;;26.02;19.05;;;29.80;39.50;;;;;;5110863;27;20073;-75
2021/10/02 07:17:46;;;;;;;22.23;18.02;;;30.30;38.50;;;;;;5109058;28;20028;-71
2021/10/02 07:20:14;;;;;;;21.38;19.10;;;31.10;37.70;;;;;;5108687;28;20084;-70
2021/10/02 07:22:41;;;;;;;20.95;18.33;;;31.60;36.10;;;;;;5114642;28;20097;-72
2021/10/02 07:25:12;;;;;;;20.35;18.20;;;32.00;35.40;;;;;;5113114;27;20036;-70
2021/10/02 07:27:40;;;;;;;20.38;18.45;;;32.50;34.80;;;;;;5113381;28;20054;-70
2021/10/02 07:30:07;;;;;;;21.05;18.92;;;33.00;34.00;;;;;;5113965;27;20040;-73
2021/10/02 07:32:33;;;;;;;19.75;17.67;;;33.50;33.70;;;;;;5113738;28;20019;-72
2021/10/02 07:34:59;;;;;;;21.75;18.67;;;34.10;32.70;;;;;;5112504;28;20369;-67
2021/10/02 07:37:26;;;;;;;20.33;17.58;;;34.70;32.10;;;;;;5113000;28;20183;-70
2021/10/02 07:39:52;;;;;;;19.55;17.67;;;35.10;31.40;;;;;;5116440;27;20110;-71
2021/10/02 07:42:19;;;;;;;20.60;17.70;;;35.50;31.10;;;;;;5116533;28;20093;-77
2021/10/02 07:44:49;;;;;;;20.27;17.45;;;36.00;30.30;;;;;;5116108;28;20020;-72
2021/10/02 07:47:19;;;;;;;19.45;16.85;;;36.50;30.00;;;;;;5116563;28;20020;-74
2021/10/02 07:49:48;;;;;;;23.33;17.08;;;37.00;29.50;;;;;;5116994;28;20035;-74
2021/10/02 07:52:14;;;;;;;19.10;17.05;;;36.90;29.20;;;;;;5114031;28;20057;-71
2021/10/02 07:54:59;;;;;;;17.90;16.20;;;36.60;28.80;;;;;;5113818;28;20467;-71
2021/10/02 07:57:25;;;;;;;19.38;17.30;;;35.90;29.10;;;;;;5113804;28;20036;-73
2021/10/02 07:59:51;;;;;;;20.63;16.52;;;35.50;29.50;;;;;;5112135;28;20028;-70
2021/10/02 08:02:21;;;;;;;18.30;16.45;;;35.50;29.70;;;;;;5115379;28;20028;-69
2021/10/02 08:04:49;;;;;;;20.65;17.27;;;35.40;29.70;;;;;;5114856;27;20524;-68
2021/10/02 08:07:14;;;;;;;18.83;16.88;;;35.10;29.70;;;;;;5113891;28;20027;-70
2021/10/02 08:09:42;;;;;;;20.00;18.08;;;34.60;30.00;;;;;;5114724;28;20446;-69
2021/10/02 08:12:08;;;;;;;20.90;18.70;;;33.50;30.50;;;;;;5113470;27;20077;-69
2021/10/02 08:14:34;;;;;;;18.33;15.88;;;31.40;32.40;;;;;;5114245;28;20095;-69
2021/10/02 08:17:00;;;;;;;21.77;15.57;;;29.50;34.90;;;;;;5113429;28;20126;-69
2021/10/02 08:19:29;;;;;;;20.48;14.80;;;28.00;37.40;;;;;;5111889;28;20271;-71
2021/10/02 08:21:56;;;;;;;22.27;16.27;;;26.80;39.20;;;;;;5113896;28;20143;-72
2021/10/02 08:24:25;;;;;;;19.77;16.48;;;25.90;41.00;;;;;;5113678;28;20028;-72
2021/10/02 08:26:53;;;;;;;20.50;16.77;;;25.20;42.50;;;;;;5114183;28;20024;-72
2021/10/02 08:29:21;;;;;;;20.48;17.02;;;24.60;43.90;;;;;;5111988;28;20027;-73
2021/10/02 08:31:47;;;;;;;19.73;17.63;;;24.00;44.90;;;;;;5111154;28;20031;-72
2021/10/02 08:34:13;;;;;;;23.95;18.08;;;23.50;46.20;;;;;;5111581;28;20028;-70
2021/10/02 08:36:39;;;;;;;19.38;17.42;;;23.10;47.30;;;;;;5113225;28;20034;-71
2021/10/02 08:39:04;;;;;;;20.42;17.83;;;22.70;48.00;;;;;;5111752;28;20427;-71
2021/10/02 08:41:30;;;;;;;22.85;17.85;;;22.40;48.90;;;;;;5111007;28;20019;-66
2021/10/02 08:43:58;;;;;;;19.60;17.48;;;22.20;49.60;;;;;;5113297;28;20020;-70
2021/10/02 08:46:25;;;;;;;21.50;18.50;;;21.90;49.90;;;;;;5113592;28;20056;-71
2021/10/02 08:49:08;;;;;;;24.50;18.85;;;21.80;50.60;;;;;;5114044;27;20019;-71
2021/10/02 08:51:37;;;;;;;21.80;18.13;;;21.60;52.00;;;;;;5113848;28;20111;-74
2021/10/02 08:54:03;;;;;;;23.08;18.80;;;21.50;51.60;;;;;;5112381;28;20350;-72
2021/10/02 08:56:32;;;;;;;21.23;18.50;;;21.40;52.20;;;;;;5112619;28;20488;-72
2021/10/02 08:59:00;;;;;;;25.25;18.90;;;21.30;52.40;;;;;;5113538;28;20024;-74
2021/10/02 09:01:26;;;;;;;26.67;18.17;;;21.20;52.70;;;;;;5095279;28;20039;-74
2021/10/02 09:03:52;;;;;;;25.40;18.48;;;21.20;52.90;;;;;;5113754;28;20091;-75
2021/10/02 09:06:21;;;;;;;24.40;17.67;;;21.20;53.00;;;;;;5112780;28;20363;-77
2021/10/02 09:08:47;;;;;;;27.30;18.10;;;21.20;53.00;;;;;;5112019;28;20036;-73
2021/10/02 09:11:13;;;;;;;20.33;17.00;;;21.30;53.00;;;;;;5111782;28;20164;-74
2021/10/02 09:13:39;;;;;;;21.13;17.67;;;21.20;52.80;;;;;;5113907;28;20024;-74
2021/10/02 09:16:05;;;;;;;22.75;17.40;;;21.20;53.00;;;;;;5113066;28;20477;-72
2021/10/02 09:18:31;;;;;;;26.98;17.45;;;21.20;53.00;;;;;;5113261;28;20024;-75
2021/10/02 09:21:01;;;;;;;23.63;17.85;;;21.20;52.60;;;;;;5113792;28;20023;-75
2021/10/02 09:23:27;;;;;;;24.45;17.95;;;21.00;52.90;;;;;;5113403;28;20412;-71
2021/10/02 09:25:53;;;;;;;24.88;19.13;;;21.00;53.00;;;;;;5112955;28;20019;-74
2021/10/02 09:28:18;;;;;;;25.70;18.13;;;21.00;52.80;;;;;;5112976;28;20049;-72
2021/10/02 09:30:46;;;;;;;22.88;18.33;;;21.00;52.60;;;;;;5112959;27;20026;-71
2021/10/02 09:33:15;;;;;;;20.25;17.05;;;21.00;52.30;;;;;;5112420;28;20024;-73
2021/10/02 09:35:42;;;;;;;25.45;18.08;;;21.00;52.40;;;;;;5112589;28;20469;-71
2021/10/02 09:38:10;;;;;;;24.50;19.10;;;21.00;52.40;;;;;;5111023;28;20133;-73
2021/10/02 09:40:37;;;;;;;23.83;17.40;;;21.10;52.20;;;;;;5112538;28;20028;-71
2021/10/02 09:43:04;;;;;;;22.50;15.10;;;21.10;51.90;;;;;;5111258;28;20047;-71
2021/10/02 09:45:41;;;;;;;24.02;15.02;;;21.00;51.50;;;;;;5110969;28;20453;-72
2021/10/02 09:48:11;;;;;;;21.55;16.48;;;20.90;51.50;;;;;;5112774;28;20024;-68
2021/10/02 09:50:45;;;;;;;18.48;13.98;;;21.00;51.70;;;;;;5112830;28;20054;-74
2021/10/02 09:53:13;;;;;;;23.40;14.40;;;21.00;51.00;;;;;;5112766;28;20024;-71
2021/10/02 09:55:42;;;;;;;18.90;13.52;;;21.00;50.90;;;;;;5112498;27;20110;-72
2021/10/02 09:58:16;;;;;;;22.00;15.00;;;21.20;50.50;;;;;;5112846;28;20059;-75
2021/10/02 10:00:45;;;;;;;20.40;14.00;;;21.20;50.80;;;;;;5111478;28;20023;-74
2021/10/02 10:03:14;;;;;;;17.05;14.40;;;21.10;49.60;;;;;;5112101;28;20027;-71
2021/10/02 10:05:45;;;;;;;40.25;20.95;;;21.10;49.60;;;;;;5110890;28;20039;-73
2021/10/02 10:08:14;;;;;;;29.83;18.42;;;21.10;49.70;;;;;;5111789;28;20106;-73
2021/10/02 10:10:42;;;;;;;19.48;14.73;;;21.20;49.50;;;;;;5112343;28;20050;-76
2021/10/02 10:13:19;;;;;;;25.08;15.98;;;21.20;49.00;;;;;;5113243;28;20042;-74
2021/10/02 10:15:53;;;;;;;15.25;13.07;;;21.30;48.70;;;;;;5111349;28;20042;-74
2021/10/02 10:18:32;;;;;;;17.55;12.88;;;21.20;48.40;;;;;;5111388;28;20480;-75
2021/10/02 10:21:01;;;;;;;20.55;13.90;;;21.10;48.10;;;;;;5111329;28;20024;-76
2021/10/02 10:23:31;;;;;;;20.13;13.85;;;21.10;48.20;;;;;;5111908;28;20110;-74
2021/10/02 10:26:19;;;;;;;18.42;13.13;;;21.10;47.90;;;;;;5112177;28;20168;-76
2021/10/02 10:28:47;;;;;;;19.92;13.65;;;21.20;48.10;;;;;;5112416;27;20032;-74
2021/10/02 10:31:23;;;;;;;18.67;13.55;;;21.30;48.20;;;;;;5112033;28;20423;-70
2021/10/02 10:33:52;;;;;;;16.40;12.52;;;21.30;48.00;;;;;;5111266;28;20027;-73
2021/10/02 10:36:21;;;;;;;24.98;12.80;;;21.30;47.40;;;;;;5109817;28;20118;-71
2021/10/02 10:38:48;;;;;;;16.55;12.05;;;21.40;47.00;;;;;;5110530;28;20073;-73
2021/10/02 10:41:15;;;;;;;24.67;13.48;;;21.50;46.80;;;;;;5111860;28;20639;-69
2021/10/02 10:43:42;;;;;;;13.90;11.13;;;21.50;46.50;;;;;;5112196;28;20492;-72
2021/10/02 10:46:15;;;;;;;15.05;11.35;;;21.50;45.50;;;;;;5110682;28;20023;-73
2021/10/02 10:48:42;;;;;;;20.27;11.60;;;21.50;46.00;;;;;;5112726;28;20015;-75
2021/10/02 10:51:28;;;;;;;20.05;12.48;;;21.60;46.00;;;;;;5110591;28;20024;-71
2021/10/02 10:53:55;;;;;;;18.15;12.32;;;21.60;45.80;;;;;;5112133;28;20036;-71
2021/10/02 10:56:42;;;;;;;16.08;11.98;;;21.60;45.80;;;;;;5115932;28;20169;-72
2021/10/02 10:59:08;;;;;;;16.55;11.80;;;21.70;45.40;;;;;;5116377;28;20077;-73
2021/10/02 11:01:39;;;;;;;21.08;12.13;;;21.80;45.40;;;;;;5114297;28;20027;-71
2021/10/02 11:04:26;;;;;;;19.52;12.43;;;21.80;45.40;;;;;;5114624;28;20028;-73
2021/10/02 11:06:57;;;;;;;18.10;11.15;;;21.80;45.30;;;;;;5115482;28;20115;-71
2021/10/02 11:09:43;;;;;;;14.88;10.80;;;21.90;45.00;;;;;;5115142;28;20465;-70
2021/10/02 11:12:09;;;;;;;17.95;11.13;;;22.00;44.20;;;;;;5114525;28;20476;-72
2021/10/02 11:14:47;;;;;;;15.23;11.25;;;21.90;44.10;;;;;;5115646;28;20050;-72
2021/10/02 11:17:32;;;;;;;13.95;11.02;;;21.80;44.50;;;;;;5114986;28;20045;-73
2021/10/02 11:20:21;;;;;;;20.38;10.52;;;21.80;44.30;;;;;;5115363;27;20031;-74
2021/10/02 11:23:26;;;;;;;17.83;10.75;;;21.80;44.40;;;;;;5115296;28;20099;-71
2021/10/02 11:26:21;;;;;;;18.58;10.82;;;21.80;44.60;;;;;;5115474;28;20020;-73
2021/10/02 11:28:51;;;;;;;16.30;11.50;;;21.80;44.20;;;;;;5113777;28;20019;-72
2021/10/02 11:31:21;;;;;;;15.23;10.65;;;21.80;44.40;;;;;;5114735;27;20618;-74
2021/10/02 11:33:49;;;;;;;18.17;10.77;;;21.70;44.70;;;;;;5113572;28;20169;-73
2021/10/02 11:36:31;;;;;;;17.75;11.18;;;21.90;45.10;;;;;;5115277;28;20552;-76
2021/10/02 11:39:11;;;;;;;21.13;10.88;;;21.90;44.50;;;;;;5114853;28;20039;-75
2021/10/02 11:41:41;;;;;;;20.88;11.90;;;22.00;44.90;;;;;;5115038;28;20045;-76
2021/10/02 11:44:07;;;;;;;19.02;11.27;;;22.10;44.60;;;;;;5114962;28;20453;-76
2021/10/02 11:46:33;;;;;;;13.07;10.32;;;22.10;44.90;;;;;;5113327;28;20027;-70
2021/10/02 11:49:20;;;;;;;15.25;10.55;;;22.30;44.60;;;;;;5114657;28;20522;-76
2021/10/02 11:52:24;;;;;;;15.85;10.38;;;22.20;43.70;;;;;;5115483;28;20030;-76
2021/10/02 11:54:49;;;;;;;18.80;11.10;;;22.20;43.60;;;;;;5088787;28;20051;-76
2021/10/02 11:57:15;;;;;;;15.98;11.38;;;22.10;43.80;;;;;;5070890;28;20041;-77
2021/10/02 11:59:43;;;;;;;13.73;10.68;;;22.10;44.60;;;;;;5071964;28;20033;-74
2021/10/02 12:02:12;;;;;;;15.93;10.55;;;22.20;43.80;;;;;;5071779;28;20021;-76
2021/10/02 12:04:38;;;;;;;15.95;11.55;;;22.10;43.80;;;;;;5071472;28;20028;-76
2021/10/02 12:07:05;;;;;;;15.57;11.00;;;22.10;44.10;;;;;;5053252;28;20447;-75
2021/10/02 12:09:31;;;;;;;16.75;10.07;;;22.20;44.90;;;;;;5070808;28;20039;-75
2021/10/02 12:11:58;;;;;;;14.75;10.95;;;22.10;44.20;;;;;;5054530;28;20036;-75
2021/10/02 12:14:26;;;;;;;18.80;10.75;;;22.10;44.50;;;;;;5054064;28;20112;-76
2021/10/02 12:17:00;;;;;;;21.45;10.25;;;22.10;44.70;;;;;;5054309;28;20066;-73
2021/10/02 12:19:27;;;;;;;22.70;10.73;;;22.10;44.60;;;;;;5069677;28;20033;-77
2021/10/02 12:21:57;;;;;;;17.33;10.68;;;22.20;44.20;;;;;;5071147;28;20143;-74
2021/10/02 12:24:35;;;;;;;26.50;10.73;;;22.20;43.60;;;;;;5071403;28;20066;-78
2021/10/02 12:27:10;;;;;;;17.80;9.88;;;22.30;43.40;;;;;;5113861;28;20125;-75
2021/10/02 12:29:41;;;;;;;13.10;9.93;;;22.50;43.00;;;;;;5111864;28;20106;-75
2021/10/02 12:32:12;;;;;;;17.67;9.50;;;22.80;42.80;;;;;;5112944;28;20099;-75
2021/10/02 12:34:41;;;;;;;18.45;10.18;;;22.90;42.90;;;;;;5113428;28;20051;-75
2021/10/02 12:37:20;;;;;;;11.95;9.88;;;23.20;42.30;;;;;;5113171;28;20338;-76
2021/10/02 12:39:51;;;;;;;17.17;9.98;;;23.30;41.70;;;;;;5112122;28;20469;-77
2021/10/02 12:42:35;;;;;;;13.80;9.80;;;23.20;41.50;;;;;;5113179;28;20082;-77
2021/10/02 12:45:13;;;;;;;17.17;9.65;;;22.90;41.90;;;;;;5112985;28;20030;-76
2021/10/02 12:47:40;;;;;;;20.33;10.05;;;22.80;42.40;;;;;;5112187;28;20293;-68
2021/10/02 12:50:14;;;;;;;19.25;10.85;;;22.80;42.50;;;;;;5113518;28;20349;-72
2021/10/02 12:52:41;;;;;;;23.10;11.20;;;22.70;42.80;;;;;;5112405;28;20059;-79
2021/10/02 12:55:14;;;;;;;13.52;9.55;;;22.60;42.70;;;;;;5111913;28;20077;-75
2021/10/02 12:57:59;;;;;;;13.55;9.45;;;22.50;42.40;;;;;;5111632;28;20034;-73
2021/10/02 13:00:31;;;;;;;16.92;9.30;;;22.40;42.70;;;;;;5111512;28;20123;-76
2021/10/02 13:03:00;;;;;;;15.13;10.67;;;22.40;42.80;;;;;;5111905;28;20034;-76
2021/10/02 13:05:33;;;;;;;18.98;10.20;;;22.30;43.10;;;;;;5111943;28;20027;-73
2021/10/02 13:08:03;;;;;;;15.27;9.87;;;22.20;43.50;;;;;;5114183;28;20035;-78
2021/10/02 13:10:35;;;;;;;15.48;9.48;;;22.10;43.90;;;;;;5111502;28;20024;-75
2021/10/02 13:13:11;;;;;;;15.55;9.88;;;22.10;43.70;;;;;;5113117;28;20028;-72
2021/10/02 13:15:39;;;;;;;17.98;10.88;;;22.20;43.90;;;;;;5112833;28;20020;-75
2021/10/02 13:18:14;;;;;;;13.55;9.38;;;22.20;43.70;;;;;;5113051;28;20035;-74
2021/10/02 13:20:42;;;;;;;18.38;10.43;;;22.10;43.50;;;;;;5111848;28;20055;-73
2021/10/02 13:23:17;;;;;;;14.77;9.73;;;21.90;43.90;;;;;;5111217;28;20023;-75
2021/10/02 13:25:51;;;;;;;11.95;9.88;;;21.80;44.20;;;;;;5111169;28;20032;-72
2021/10/02 13:28:22;;;;;;;;;;;21.80;44.20;;;;;;5113548;28;20027;-74
2021/10/02 13:30:49;;;;;;;14.32;9.32;;;21.80;44.20;;;;;;5112326;28;19994;-79
2021/10/02 13:33:16;;;;;;;13.98;9.45;;;21.90;44.00;;;;;;5111665;28;20031;-70
2021/10/02 13:35:52;;;;;;;11.55;9.90;;;21.90;44.00;;;;;;5113289;28;20031;-73